4XCWZ LLHZ-LLHZ

Flight info

Callsign 4XCWZ
Flight time 0h 1m
Altitude 800
Route CIRCUITS
Aircraft C172/L-V/N

Departure

Time 2026-04-26 15:20
Airport Herzliya Airport (LLHZ)

Arrival

Time 2026-04-26 15:21
Airport Herzliya Airport (LLHZ)
Time Latitude Longitude Altitude Speed Heading
2026-04-26 15:14 32.17939 34.83581 109 ft 0 kts 20°
2026-04-26 15:17 32.17950 34.83600 112 ft 11 kts 95°
2026-04-26 15:17 32.17900 34.83779 119 ft 24 kts 112°
2026-04-26 15:17 32.17881 34.83846 122 ft 0 kts 86°
2026-04-26 15:18 32.17885 34.83855 123 ft 8 kts 50°
2026-04-26 15:19 32.17941 34.83748 121 ft 38 kts 286°
2026-04-26 15:19 32.18083 34.83284 160 ft 70 kts 283°
2026-04-26 15:19 32.18283 34.82807 373 ft 70 kts 309°
2026-04-26 15:19 32.18809 34.82833 461 ft 85 kts 13°
2026-04-26 15:20 32.19338 34.83148 622 ft 94 kts 39°
2026-04-26 15:20 32.19295 34.83894 635 ft 110 kts 107°
2026-04-26 15:20 32.19005 34.84637 822 ft 105 kts 133°
2026-04-26 15:20 32.18439 34.85191 930 ft 110 kts 168°
2026-04-26 15:21 32.17709 34.85079 935 ft 104 kts 215°
2026-04-26 15:21 32.17627 34.84390 664 ft 97 kts 305°
2026-04-26 15:21 32.17918 34.83841 197 ft 68 kts 287°
2026-04-26 15:21 32.18035 34.83431 106 ft 45 kts 285°
2026-04-26 15:22 32.18119 34.83092 239 ft 43 kts 290°
2026-04-26 15:22 32.18337 34.82781 374 ft 55 kts 326°
2026-04-26 15:22 32.18806 34.82880 421 ft 84 kts 16°
2026-04-26 15:22 32.19263 34.83374 549 ft 102 kts 61°
2026-04-26 15:23 32.19142 34.84156 656 ft 104 kts 121°
2026-04-26 15:23 32.18764 34.84888 864 ft 105 kts 126°
2026-04-26 15:23 32.18268 34.85525 993 ft 106 kts 171°
2026-04-26 15:23 32.17780 34.85202 970 ft 64 kts 270°
2026-04-26 15:24 32.17818 34.84731 636 ft 49 kts 268°
2026-04-26 15:24 32.17825 34.84475 471 ft 45 kts 273°
2026-04-26 15:24 32.17876 34.84083 260 ft 51 kts 276°
2026-04-26 15:24 32.17971 34.83675 125 ft 46 kts 287°
2026-04-26 15:25 32.18060 34.83329 120 ft 51 kts 283°
2026-04-26 15:25 32.18156 34.82917 252 ft 55 kts 286°
2026-04-26 15:25 32.18517 34.82774 351 ft 78 kts 16°
2026-04-26 15:25 32.19002 34.83029 527 ft 80 kts 19°
2026-04-26 15:26 32.19156 34.83679 587 ft 94 kts 121°
2026-04-26 15:26 32.18770 34.84252 692 ft 90 kts 138°
2026-04-26 15:26 32.18306 34.84767 720 ft 99 kts 144°
2026-04-26 15:26 32.17780 34.85080 772 ft 68 kts 203°
2026-04-26 15:27 32.17612 34.84752 577 ft 50 kts 288°
2026-04-26 15:27 32.17782 34.84354 326 ft 59 kts 285°
2026-04-26 15:27 32.17914 34.83865 149 ft 64 kts 284°
2026-04-26 15:27 32.18027 34.83474 118 ft 45 kts 278°
2026-04-26 15:28 32.18120 34.83115 235 ft 54 kts 293°
2026-04-26 15:28 32.18354 34.82730 384 ft 64 kts 314°
2026-04-26 15:28 32.18827 34.82819 471 ft 86 kts 20°
2026-04-26 15:28 32.19174 34.83433 581 ft 101 kts 107°
2026-04-26 15:29 32.18764 34.84068 670 ft 102 kts 139°
2026-04-26 15:29 32.18263 34.84664 701 ft 110 kts 141°
2026-04-26 15:29 32.17702 34.84633 538 ft 54 kts 288°
2026-04-26 15:30 32.17949 34.83740 123 ft 42 kts 281°
2026-04-26 15:30 32.18044 34.83392 104 ft 59 kts 291°
2026-04-26 15:30 32.18215 34.82863 229 ft 69 kts 292°
2026-04-26 15:31 32.18525 34.82411 393 ft 73 kts 328°
2026-04-26 15:31 32.19282 34.83380 594 ft 107 kts 98°
2026-04-26 15:31 32.19061 34.84204 772 ft 106 kts 112°
2026-04-26 15:32 32.18305 34.85266 894 ft 82 kts 193°
2026-04-26 15:32 32.17712 34.85079 750 ft 68 kts 213°
2026-04-26 15:32 32.17660 34.84676 536 ft 59 kts 287°
2026-04-26 15:33 32.17804 34.84195 278 ft 67 kts 286°
2026-04-26 15:33 32.17961 34.83707 118 ft 51 kts 285°
2026-04-26 15:33 32.18026 34.83472 107 ft 16 kts 290°
2026-04-26 15:33 32.18056 34.83361 104 ft 14 kts 273°
2026-04-26 15:34 32.18050 34.83333 105 ft 0 kts 232°
2026-04-26 15:34 32.18044 34.83330 105 ft 1 kts 194°
2026-04-26 15:34 32.18041 34.83329 105 ft 0 kts 193°
2026-04-26 15:34 32.18020 34.83322 105 ft 8 kts 289°
2026-04-26 15:35 32.18029 34.83319 104 ft 2 kts 326°
2026-04-26 15:35 32.18025 34.83310 104 ft 3 kts 174°
2026-04-26 15:35 32.18022 34.83321 104 ft 1 kts 31°